Time;durP1;ratioP1;P1;durP2;ratioP2;P2;SDS_P1;SDS_P2;PMS_P1;PMS_P2;Temp;Humidity;BMP_temperature;BMP_pressure;BME280_temperature;BME280_humidity;BME280_pressure;Samples;Min_cycle;Max_cycle;Signal;HPM_P1;HPM_P2
2021/12/17 00:04:38;;;;;;;6.15;5.10;;;;;;;17.66;55.90;104115.91;4806203;29;20055;-83
2021/12/17 00:07:07;;;;;;;5.97;5.38;;;;;;;17.66;55.71;104118.53;4789733;29;20034;-82
2021/12/17 00:09:32;;;;;;;6.03;5.38;;;;;;;17.65;55.84;104108.91;4789870;29;20129;-84
2021/12/17 00:11:58;;;;;;;7.03;5.32;;;;;;;17.67;55.79;104111.59;4789913;29;20030;-84
2021/12/17 00:14:28;;;;;;;7.22;5.55;;;;;;;17.65;56.00;104114.13;4806008;29;20385;-84
2021/12/17 00:16:58;;;;;;;6.45;5.68;;;;;;;17.64;56.04;104104.53;4789836;29;20091;-82
2021/12/17 00:46:33;;;;;;;6.47;5.18;;;;;;;17.65;55.60;104110.63;4795738;29;20100;-83
2021/12/17 00:52:34;;;;;;;5.93;4.63;;;;;;;17.62;55.44;104107.91;4809005;29;20034;-83
2021/12/17 00:55:00;;;;;;;6.28;4.75;;;;;;;17.63;55.60;104107.06;4777851;29;20506;-84
2021/12/17 00:57:34;;;;;;;5.50;4.93;;;;;;;17.63;55.62;104112.28;4770306;29;20043;-84
2021/12/17 01:00:00;;;;;;;5.47;4.95;;;;;;;17.63;55.78;104107.94;4792486;29;20027;-82
2021/12/17 01:02:29;;;;;;;5.40;4.70;;;;;;;17.62;55.60;104098.38;4777948;29;20046;-84
2021/12/17 01:04:58;;;;;;;5.80;4.88;;;;;;;17.63;55.77;104107.94;4808634;29;20031;-84
2021/12/17 01:07:28;;;;;;;6.00;5.40;;;;;;;17.63;55.60;104104.47;4792345;29;20026;-84
2021/12/17 01:09:53;;;;;;;6.63;5.32;;;;;;;17.63;55.51;104109.66;4808587;29;20183;-80
2021/12/17 01:12:22;;;;;;;6.85;4.72;;;;;;;17.61;55.37;104101.78;4808534;29;20471;-83
2021/12/17 01:14:48;;;;;;;5.78;4.97;;;;;;;17.61;55.61;104093.97;4808493;29;20492;-83
2021/12/17 01:17:17;;;;;;;7.22;4.55;;;;;;;17.61;55.69;104099.19;4808512;29;20160;-85
2021/12/17 01:20:12;;;;;;;5.45;4.90;;;;;;;17.61;55.62;104098.31;4808262;29;20386;-83
2021/12/17 01:25:35;;;;;;;7.05;4.95;;;;;;;17.63;55.36;104112.28;4808318;29;20529;-84
2021/12/17 01:36:14;;;;;;;5.78;4.85;;;;;;;17.61;55.39;104101.78;4807473;29;19968;-79
2021/12/17 01:39:35;;;;;;;6.50;5.13;;;;;;;17.61;55.40;104107.00;4776892;29;20495;-83
2021/12/17 01:43:53;;;;;;;6.32;4.97;;;;;;;17.60;55.57;104106.94;4808050;29;20039;-83
2021/12/17 01:46:28;;;;;;;6.55;4.88;;;;;;;17.60;55.40;104104.34;4776894;29;20045;-80
2021/12/17 01:49:18;;;;;;;5.35;4.80;;;;;;;17.60;55.68;104112.16;4791807;29;20434;-82
2021/12/17 02:00:07;;;;;;;6.43;5.30;;;;;;;17.60;55.55;104133.88;4808557;29;20071;-85
2021/12/17 02:02:41;;;;;;;5.97;5.25;;;;;;;17.58;55.52;104135.53;4791821;29;20039;-84
2021/12/17 02:05:07;;;;;;;5.80;5.13;;;;;;;17.59;55.50;104132.09;4791364;29;20406;-84
2021/12/17 02:07:33;;;;;;;6.38;5.32;;;;;;;17.59;55.53;104139.91;4791275;29;20031;-84
2021/12/17 02:20:40;;;;;;;;;;;;;;;17.59;55.59;104146.81;4807600;29;20552;-85
2021/12/17 02:28:59;;;;;;;6.30;5.30;;;;;;;17.58;55.47;104145.06;4807252;29;20616;-85
2021/12/17 02:33:52;;;;;;;5.93;5.30;;;;;;;17.57;55.32;104144.19;4791169;29;20027;-84
2021/12/17 02:36:22;;;;;;;5.15;4.65;;;;;;;17.57;55.51;104138.06;4791042;29;20035;-84
2021/12/17 02:38:48;;;;;;;6.20;5.47;;;;;;;17.57;55.16;104138.97;4790913;29;20031;-83
2021/12/17 02:46:41;;;;;;;6.22;5.03;;;;;;;17.56;55.52;104123.28;4807173;29;19938;-85
2021/12/17 02:49:10;;;;;;;5.32;4.55;;;;;;;17.56;55.66;104125.88;4790924;29;20046;-83
2021/12/17 02:51:35;;;;;;;5.47;4.70;;;;;;;17.56;55.33;104129.34;4790649;29;20399;-83
2021/12/17 02:54:01;;;;;;;5.35;4.50;;;;;;;17.55;55.59;104124.06;4790815;29;20035;-84
2021/12/17 02:56:27;;;;;;;5.75;5.07;;;;;;;17.54;55.53;104115.38;4775589;29;20030;-83
2021/12/17 02:58:54;;;;;;;5.70;4.80;;;;;;;17.54;55.39;104112.78;4775887;29;20122;-84
2021/12/17 03:01:21;;;;;;;5.55;4.95;;;;;;;17.54;55.37;104115.38;4790772;29;20054;-84
2021/12/17 03:03:49;;;;;;;4.97;4.47;;;;;;;17.54;55.45;104109.28;4775635;29;20165;-84
2021/12/17 03:06:15;;;;;;;5.00;4.50;;;;;;;17.54;55.56;104104.09;4790537;29;20037;-81
2021/12/17 03:08:41;;;;;;;5.65;4.75;;;;;;;17.53;55.72;104100.59;4775418;29;20034;-84
2021/12/17 03:11:07;;;;;;;5.43;4.70;;;;;;;17.54;55.39;104104.97;4806545;29;20088;-85
2021/12/17 03:13:35;;;;;;;5.28;4.75;;;;;;;17.53;55.40;104105.81;4760744;29;20046;-84
2021/12/17 03:16:13;;;;;;;5.28;4.68;;;;;;;17.52;55.51;104106.59;4790430;29;20062;-81
2021/12/17 03:24:22;;;;;;;5.30;4.70;;;;;;;17.53;55.19;104100.59;4793061;29;20065;-85
2021/12/17 03:26:48;;;;;;;5.30;4.80;;;;;;;17.52;55.33;104098.81;4806521;29;20037;-83
2021/12/17 03:29:14;;;;;;;5.13;4.63;;;;;;;17.53;55.35;104104.88;4806743;29;20033;-85
2021/12/17 03:31:40;;;;;;;4.78;4.28;;;;;;;17.53;55.25;104107.50;4774924;29;20049;-85
2021/12/17 03:36:33;;;;;;;4.63;4.03;;;;;;;17.52;55.36;104105.72;4806669;29;20039;-83
2021/12/17 03:38:59;;;;;;;5.13;4.60;;;;;;;17.52;55.28;104105.72;4790379;29;20115;-84
2021/12/17 03:41:35;;;;;;;4.80;4.30;;;;;;;17.52;55.46;104108.34;4806514;29;20062;-85
2021/12/17 03:44:01;;;;;;;5.47;4.63;;;;;;;17.50;55.29;104100.44;4791777;29;20122;-85
2021/12/17 03:46:26;;;;;;;4.75;4.25;;;;;;;17.51;55.32;104110.06;4790144;29;20134;-85
2021/12/17 03:48:52;;;;;;;4.82;4.32;;;;;;;17.52;55.37;104109.22;4806276;29;20034;-84
2021/12/17 03:51:19;;;;;;;5.45;4.60;;;;;;;17.51;55.25;104112.66;4760423;29;20372;-84
2021/12/17 03:53:48;;;;;;;4.93;4.40;;;;;;;17.51;55.27;104111.75;4790399;29;20027;-84
2021/12/17 03:56:14;;;;;;;5.35;4.57;;;;;;;17.50;55.40;104109.97;4789899;29;20037;-81
2021/12/17 03:58:40;;;;;;;4.60;4.10;;;;;;;17.50;55.11;104113.47;4776610;29;20039;-81
2021/12/17 04:01:06;;;;;;;4.90;4.30;;;;;;;17.50;55.33;104108.25;4809884;29;20035;-84
2021/12/17 04:03:33;;;;;;;4.43;4.03;;;;;;;17.50;55.22;104107.38;4793583;29;20027;-85
2021/12/17 04:05:59;;;;;;;4.82;4.28;;;;;;;17.50;55.40;104103.06;4793812;29;20482;-84
2021/12/17 04:08:24;;;;;;;4.93;4.43;;;;;;;17.50;55.15;104113.47;4793586;29;20091;-84
2021/12/17 04:10:54;;;;;;;5.18;4.20;;;;;;;17.49;55.63;104111.69;4793524;29;20035;-83
2021/12/17 04:15:55;;;;;;;5.68;4.38;;;;;;;17.48;55.28;104113.41;4779481;29;20034;-83
2021/12/17 04:18:21;;;;;;;4.95;4.13;;;;;;;17.48;55.19;104109.91;4779065;29;20039;-85
2021/12/17 04:20:47;;;;;;;4.35;3.60;;;;;;;17.50;55.40;104115.19;4793263;29;20030;-83
2021/12/17 04:23:13;;;;;;;4.43;3.75;;;;;;;17.50;55.55;104110.88;4809171;29;20082;-84
2021/12/17 04:25:39;;;;;;;3.92;3.53;;;;;;;17.51;55.71;104114.34;4793140;29;20065;-80
2021/12/17 04:28:04;;;;;;;4.90;3.97;;;;;;;17.51;55.54;104111.75;4778280;29;20118;-84
2021/12/17 04:30:31;;;;;;;4.18;3.72;;;;;;;17.53;55.57;104117.91;4778320;29;20031;-82
2021/12/17 04:32:56;;;;;;;4.80;3.80;;;;;;;17.51;55.56;104112.66;4778326;29;20034;-83
2021/12/17 04:35:22;;;;;;;4.40;3.78;;;;;;;17.52;55.63;104116.16;4778004;29;20496;-84
2021/12/17 04:37:47;;;;;;;4.20;3.80;;;;;;;17.53;55.76;104117.91;4778197;29;20034;-83
2021/12/17 04:40:13;;;;;;;4.70;3.90;;;;;;;17.53;55.57;104112.69;4809137;29;20065;-83
2021/12/17 04:45:23;;;;;;;;;;;;;;;17.52;55.62;104104.00;4783355;29;20547;-84
2021/12/17 04:58:45;;;;;;;4.35;3.80;;;;;;;17.51;55.44;104099.63;4795174;29;20041;-85
2021/12/17 05:01:13;;;;;;;4.40;4.00;;;;;;;17.51;55.41;104098.72;4777637;29;20031;-84
2021/12/17 05:03:39;;;;;;;4.40;3.55;;;;;;;17.51;55.44;104103.94;4792862;29;20463;-86
2021/12/17 05:06:05;;;;;;;3.97;3.58;;;;;;;17.51;55.35;104101.31;4777555;29;20042;-85
2021/12/17 05:08:30;;;;;;;5.75;3.92;;;;;;;17.52;55.34;104103.13;4777572;29;20038;-83
2021/12/17 05:19:21;;;;;;;3.90;3.45;;;;;;;17.50;55.37;104102.16;4808850;29;20049;-83
2021/12/17 05:21:47;;;;;;;3.95;3.47;;;;;;;17.50;55.32;104108.25;4778947;29;20042;-86
2021/12/17 05:24:12;;;;;;;3.92;3.30;;;;;;;17.49;55.30;104109.09;4777228;29;20058;-84
2021/12/17 05:26:37;;;;;;;3.67;3.20;;;;;;;17.50;55.49;104109.97;4777641;29;20035;-83
2021/12/17 05:29:03;;;;;;;4.22;3.75;;;;;;;17.49;55.41;104103.88;4792293;29;20039;-83
2021/12/17 05:31:28;;;;;;;4.20;3.40;;;;;;;17.50;55.25;104107.38;4808499;29;20031;-85
2021/12/17 05:33:56;;;;;;;4.50;3.72;;;;;;;17.48;55.16;104108.22;4777351;29;20183;-85
2021/12/17 05:36:21;;;;;;;3.53;3.22;;;;;;;17.48;55.29;104116.03;4791887;29;20062;-84
2021/12/17 05:38:47;;;;;;;4.35;3.53;;;;;;;17.49;55.32;104116.91;4762617;29;20126;-87
2021/12/17 05:41:12;;;;;;;4.25;3.50;;;;;;;17.51;55.11;104114.34;4777156;29;20041;-83
2021/12/17 05:43:38;;;;;;;4.07;3.50;;;;;;;17.50;55.45;104115.19;4807887;29;20035;-83
2021/12/17 05:46:11;;;;;;;3.78;3.42;;;;;;;17.51;55.08;104119.56;4776813;29;20474;-82
2021/12/17 05:48:37;;;;;;;4.35;3.35;;;;;;;17.51;55.22;104119.56;4777264;29;20086;-82
2021/12/17 05:51:06;;;;;;;4.07;3.47;;;;;;;17.50;55.30;104116.06;4776858;29;20046;-82
2021/12/17 05:53:32;;;;;;;3.75;3.33;;;;;;;17.50;55.25;104109.97;4791752;29;20038;-84
2021/12/17 05:55:57;;;;;;;3.83;3.30;;;;;;;17.51;55.38;104119.56;4791514;29;20037;-84
2021/12/17 05:58:23;;;;;;;3.40;3.10;;;;;;;17.50;55.22;104128.22;4791415;29;20042;-84
2021/12/17 06:00:49;;;;;;;3.42;3.03;;;;;;;17.50;55.51;104123.00;4776546;29;20031;-80
2021/12/17 06:03:15;;;;;;;3.80;3.40;;;;;;;17.51;55.64;104123.06;4791322;29;20037;-82
2021/12/17 06:05:40;;;;;;;3.30;2.90;;;;;;;17.52;55.72;104122.22;4791153;29;20072;-77
2021/12/17 06:08:06;;;;;;;3.90;3.20;;;;;;;17.52;55.63;104126.56;4791344;29;20479;-82
2021/12/17 06:10:32;;;;;;;4.32;3.33;;;;;;;17.53;55.77;104128.31;4791020;29;20038;-84
2021/12/17 06:12:58;;;;;;;3.63;3.25;;;;;;;17.53;55.54;104131.84;4791095;29;20375;-81
2021/12/17 06:15:25;;;;;;;4.65;3.00;;;;;;;17.53;55.82;104121.44;4776373;29;20042;-81
2021/12/17 06:17:52;;;;;;;5.88;3.95;;;;;;;17.54;55.95;104122.31;4791489;29;20126;-81
2021/12/17 06:20:19;;;;;;;8.30;5.20;;;;;;;17.56;56.08;104125.88;4791117;29;20496;-81
2021/12/17 06:22:45;;;;;;;8.10;4.93;;;;;;;17.66;56.56;104123.72;4790416;29;20030;-80
2021/12/17 06:25:12;;;;;;;9.55;4.85;;;;;;;17.71;56.35;104136.06;4776193;29;20055;-76
2021/12/17 06:27:38;;;;;;;9.75;4.78;;;;;;;17.72;56.31;104138.69;4791003;29;20027;-89
2021/12/17 06:30:06;;;;;;;12.40;5.03;;;;;;;17.73;56.24;104147.44;4791304;29;20076;-83
2021/12/17 06:32:31;;;;;;;9.25;4.50;;;;;;;17.73;56.24;104145.72;4806968;29;20109;-77
2021/12/17 06:34:56;;;;;;;9.27;4.20;;;;;;;17.74;56.54;104147.47;4776245;29;20077;-84
2021/12/17 06:37:22;;;;;;;7.70;3.95;;;;;;;17.76;56.25;104152.75;4790927;29;20038;-79
2021/12/17 06:39:48;;;;;;;8.15;4.18;;;;;;;17.76;56.63;104147.56;4791025;29;20088;-81
2021/12/17 06:42:15;;;;;;;7.53;3.97;;;;;;;17.74;56.82;104147.47;4790675;29;20508;-78
2021/12/17 06:44:42;;;;;;;7.10;4.30;;;;;;;17.76;56.62;104151.03;4806865;29;20039;-79
2021/12/17 06:47:24;;;;;;;7.40;4.20;;;;;;;17.76;56.53;104151.03;4775694;29;20035;-78
2021/12/17 06:49:57;;;;;;;6.43;4.70;;;;;;;17.77;56.59;104158.03;4792863;29;20482;-77
2021/12/17 06:56:17;;;;;;;7.25;4.68;;;;;;;17.78;56.63;104153.72;4807016;29;20074;-79
2021/12/17 06:58:41;;;;;;;7.53;4.65;;;;;;;17.78;56.64;104154.59;4801476;29;20043;-79
2021/12/17 07:05:48;;;;;;;6.20;4.47;;;;;;;17.78;56.55;104149.38;4784325;29;20027;-78
2021/12/17 07:18:46;;;;;;;10.95;4.70;;;;;;;17.82;56.47;104161.75;4793195;29;20042;-77
2021/12/17 07:23:46;;;;;;;5.32;4.20;;;;;;;17.83;56.43;104160.94;4806327;29;20038;-79
2021/12/17 07:30:27;;;;;;;9.25;4.30;;;;;;;17.84;56.74;104161.84;4792934;29;20053;-77
2021/12/17 07:34:12;;;;;;;6.28;4.47;;;;;;;17.85;56.58;104168.81;4791918;29;20031;-78
2021/12/17 07:36:56;;;;;;;6.32;4.68;;;;;;;17.85;56.49;104174.03;4779290;29;20070;-77
2021/12/17 07:39:22;;;;;;;6.15;4.95;;;;;;;17.85;56.61;104174.03;4810011;29;20027;-77
2021/12/17 07:41:47;;;;;;;5.78;4.32;;;;;;;17.86;56.69;104176.69;4778811;29;20038;-78
2021/12/17 07:44:13;;;;;;;5.20;3.88;;;;;;;17.86;56.51;104184.50;4793855;29;20038;-76
2021/12/17 07:46:38;;;;;;;6.38;4.18;;;;;;;17.86;56.49;104183.63;4793998;29;20041;-82
2021/12/17 07:49:04;;;;;;;6.93;4.20;;;;;;;17.86;56.50;104189.72;4793496;29;20035;-79
2021/12/17 07:51:29;;;;;;;6.03;4.07;;;;;;;17.87;56.60;104193.22;4778748;29;20039;-80
2021/12/17 07:53:56;;;;;;;5.93;4.25;;;;;;;17.87;56.50;104193.22;4778529;29;20382;-79
2021/12/17 07:56:25;;;;;;;4.97;4.15;;;;;;;17.87;56.35;104196.69;4763862;29;20095;-79
2021/12/17 07:58:51;;;;;;;5.68;4.50;;;;;;;17.89;56.31;104201.97;4809467;29;20038;-78
2021/12/17 08:01:16;;;;;;;5.00;4.07;;;;;;;17.89;56.45;104204.59;4793392;29;20035;-77
2021/12/17 08:03:42;;;;;;;4.43;3.72;;;;;;;17.87;56.48;104201.03;4778377;29;20474;-78
2021/12/17 08:06:08;;;;;;;5.65;4.30;;;;;;;17.90;56.44;104198.56;4809477;29;20036;-78
2021/12/17 08:08:34;;;;;;;5.55;3.83;;;;;;;17.89;56.48;104195.06;4809897;29;20039;-79
2021/12/17 08:11:00;;;;;;;4.72;3.63;;;;;;;17.91;56.29;104187.31;4809614;29;20122;-77
2021/12/17 08:13:29;;;;;;;5.65;4.07;;;;;;;17.90;56.25;104201.19;4809778;29;20023;-78
2021/12/17 08:31:28;;;;;;;5.72;3.90;;;;;;;17.97;56.18;104184.09;4792036;30;20050;-82
2021/12/17 08:33:54;;;;;;;4.38;3.35;;;;;;;17.96;55.95;104180.56;4776907;30;20032;-83
2021/12/17 08:36:19;;;;;;;4.47;3.40;;;;;;;17.97;56.19;104182.38;4775311;30;20038;-81
2021/12/17 08:38:46;;;;;;;4.25;3.58;;;;;;;17.98;56.22;104183.25;4760079;30;20062;-83
2021/12/17 08:41:13;;;;;;;3.60;3.10;;;;;;;17.99;56.15;104185.03;4761813;30;20035;-77
2021/12/17 08:43:40;;;;;;;5.35;3.38;;;;;;;17.99;56.00;104185.94;4775143;30;20042;-82
2021/12/17 08:46:05;;;;;;;3.97;3.33;;;;;;;18.00;56.10;104179.88;4774470;30;20035;-83
2021/12/17 08:48:31;;;;;;;3.60;3.13;;;;;;;18.01;56.17;104183.38;4775192;30;20023;-82
2021/12/17 08:50:57;;;;;;;4.65;3.85;;;;;;;18.00;55.98;104177.25;4791518;30;20039;-82
2021/12/17 08:53:23;;;;;;;4.47;3.30;;;;;;;18.01;56.27;104189.50;4789907;30;20027;-82
2021/12/17 08:55:48;;;;;;;4.80;3.13;;;;;;;18.01;56.14;104186.88;4789483;29;20049;-78
2021/12/17 08:58:14;;;;;;;4.55;3.03;;;;;;;18.00;56.30;104194.63;4774382;30;20043;-78
2021/12/17 09:00:44;;;;;;;3.83;2.97;;;;;;;18.00;56.10;104197.22;4775045;30;20096;-78
2021/12/17 09:03:10;;;;;;;3.97;3.22;;;;;;;17.99;56.14;104198.06;4774819;30;20096;-86
2021/12/17 09:05:38;;;;;;;3.85;3.15;;;;;;;17.98;55.93;104202.38;4774567;30;20089;-85
2021/12/17 09:08:04;;;;;;;4.57;2.85;;;;;;;17.99;55.97;104195.47;4759748;30;20041;-84
2021/12/17 09:10:30;;;;;;;5.57;2.72;;;;;;;18.00;56.20;104192.91;4774389;30;20031;-81
2021/12/17 09:12:56;;;;;;;5.00;3.40;;;;;;;18.02;56.27;104203.41;4774449;30;20080;-82
2021/12/17 09:15:22;;;;;;;3.78;3.10;;;;;;;18.03;56.27;104199.94;4759601;30;20054;-81
2021/12/17 09:17:47;;;;;;;6.22;3.30;;;;;;;18.04;56.14;104202.63;4790569;30;20532;-78
2021/12/17 09:20:13;;;;;;;4.20;3.10;;;;;;;18.03;56.31;104199.94;4791363;30;20099;-79
2021/12/17 09:22:38;;;;;;;4.07;2.83;;;;;;;18.03;56.05;104208.69;4759598;30;20031;-78
2021/12/17 09:25:04;;;;;;;4.43;2.80;;;;;;;18.03;56.32;104200.88;4776934;29;20059;-81
2021/12/17 09:27:29;;;;;;;3.65;2.90;;;;;;;18.05;56.25;104198.31;4792053;29;20521;-80
2021/12/17 09:29:55;;;;;;;3.33;2.63;;;;;;;18.05;56.38;104201.81;4808588;29;20159;-81
2021/12/17 09:32:21;;;;;;;4.28;2.90;;;;;;;18.08;56.09;104203.66;4777781;29;20398;-82
2021/12/17 09:34:47;;;;;;;2.90;2.50;;;;;;;18.09;56.20;104210.63;4777574;29;20035;-83
2021/12/17 09:37:13;;;;;;;3.88;2.72;;;;;;;18.08;55.94;104212.38;4792653;29;20035;-84
2021/12/17 09:39:39;;;;;;;2.70;2.40;;;;;;;18.09;56.07;104214.16;4777517;29;20030;-79
2021/12/17 09:42:04;;;;;;;3.58;2.90;;;;;;;18.11;56.18;104219.41;4809257;29;20180;-83
2021/12/17 09:44:29;;;;;;;3.90;2.90;;;;;;;18.09;56.08;104214.16;4780521;29;20035;-84
2021/12/17 09:46:57;;;;;;;3.20;2.65;;;;;;;18.09;56.09;104221.97;4781632;29;20035;-82
2021/12/17 09:49:24;;;;;;;4.03;2.60;;;;;;;18.12;56.14;104222.91;4794808;29;20109;-82
2021/12/17 09:51:49;;;;;;;3.03;2.60;;;;;;;18.12;56.08;104230.72;4813895;29;20027;-79
2021/12/17 09:54:16;;;;;;;2.80;2.50;;;;;;;18.11;55.87;104232.44;4785692;29;20053;-82
2021/12/17 09:56:42;;;;;;;3.03;2.58;;;;;;;18.13;55.91;104232.53;4800482;29;20054;-81
2021/12/17 09:59:08;;;;;;;3.17;2.70;;;;;;;18.14;56.13;104236.91;4818409;29;20058;-82
2021/12/17 10:01:42;;;;;;;3.30;2.25;;;;;;;18.14;56.13;104235.19;4816715;29;20035;-83
2021/12/17 10:04:18;;;;;;;3.80;2.47;;;;;;;18.14;55.97;104250.84;4798535;29;20034;-82
2021/12/17 10:06:45;;;;;;;2.97;2.40;;;;;;;18.14;56.08;104257.75;4788161;29;20106;-82
2021/12/17 10:09:11;;;;;;;2.58;2.35;;;;;;;18.14;55.81;104256.06;4772660;29;20092;-84
2021/12/17 10:11:37;;;;;;;2.95;2.40;;;;;;;18.13;55.95;104250.78;4798783;29;20509;-82
2021/12/17 10:14:22;;;;;;;3.13;2.70;;;;;;;18.13;55.89;104264.69;4797479;29;20091;-82
2021/12/17 10:16:47;;;;;;;3.38;2.35;;;;;;;18.11;55.95;104266.34;4792433;29;20029;-83
2021/12/17 10:19:46;;;;;;;3.58;2.78;;;;;;;18.11;55.96;104268.06;4791413;29;20109;-82
2021/12/17 10:22:15;;;;;;;3.63;2.38;;;;;;;18.09;56.13;104252.34;4791844;29;20031;-81
2021/12/17 10:25:02;;;;;;;2.53;2.03;;;;;;;18.08;56.14;104255.78;4808265;29;20051;-80
2021/12/17 10:27:39;;;;;;;3.75;2.30;;;;;;;18.08;56.13;104253.19;4791273;29;20027;-82
2021/12/17 10:30:30;;;;;;;2.53;2.00;;;;;;;18.08;56.14;104254.06;4807482;29;20058;-80
2021/12/17 10:32:58;;;;;;;2.53;2.13;;;;;;;18.07;55.84;104248.78;4790999;29;20033;-82
2021/12/17 10:35:26;;;;;;;2.63;2.20;;;;;;;18.05;56.05;104261.75;4792158;29;20095;-82
2021/12/17 10:37:56;;;;;;;2.15;1.88;;;;;;;18.04;56.09;104251.28;4761506;29;20509;-82
2021/12/17 10:40:49;;;;;;;3.03;2.03;;;;;;;18.04;56.32;104256.47;4790872;29;20030;-81
2021/12/17 10:43:28;;;;;;;3.00;2.10;;;;;;;18.03;56.03;104255.59;4806975;29;20058;-79
2021/12/17 10:46:04;;;;;;;2.33;2.10;;;;;;;18.03;56.20;104245.16;4791726;29;20134;-81
2021/12/17 10:51:42;;;;;;;3.08;2.10;;;;;;;18.02;56.01;104247.69;4792404;29;20398;-83
2021/12/17 10:54:08;;;;;;;2.75;2.20;;;;;;;18.00;56.06;104234.59;4806001;29;20031;-82
2021/12/17 10:56:39;;;;;;;2.45;1.83;;;;;;;17.98;56.07;104233.63;4790798;29;20386;-83
2021/12/17 10:59:13;;;;;;;2.25;2.03;;;;;;;18.00;55.99;104232.00;4790786;29;20023;-80
2021/12/17 11:01:45;;;;;;;2.60;2.10;;;;;;;18.00;56.01;104233.72;4790614;29;20420;-81
2021/12/17 11:04:30;;;;;;;2.50;2.00;;;;;;;18.00;56.21;104237.19;4806666;29;20097;-82
2021/12/17 11:07:12;;;;;;;2.63;1.90;;;;;;;18.01;55.90;104232.91;4806646;29;20042;-84
2021/12/17 11:09:53;;;;;;;2.55;2.08;;;;;;;18.03;55.93;104229.53;4790605;29;20042;-83
2021/12/17 11:12:34;;;;;;;2.58;1.88;;;;;;;18.06;55.99;104237.47;4790552;29;20064;-84
2021/12/17 11:15:08;;;;;;;3.05;1.70;;;;;;;18.07;56.10;104244.47;4790323;29;20046;-82
2021/12/17 11:17:34;;;;;;;2.67;1.90;;;;;;;18.09;55.89;104241.91;4790370;29;20074;-83
2021/12/17 11:20:05;;;;;;;2.45;1.85;;;;;;;18.11;55.92;104236.78;4790549;29;20031;-84
2021/12/17 11:22:30;;;;;;;2.10;1.63;;;;;;;18.11;55.81;104239.38;4790135;29;20027;-83
2021/12/17 11:25:01;;;;;;;2.45;2.00;;;;;;;18.11;55.89;104234.16;4775156;29;20063;-85
2021/12/17 11:27:27;;;;;;;2.83;1.60;;;;;;;18.13;55.75;104235.13;4806516;29;20045;-84
2021/12/17 11:29:53;;;;;;;2.25;1.58;;;;;;;18.13;55.72;104236.00;4790156;29;20042;-83
2021/12/17 11:32:19;;;;;;;2.47;1.70;;;;;;;18.13;55.82;104236.00;4806434;29;20041;-83
2021/12/17 11:34:45;;;;;;;1.98;1.65;;;;;;;18.14;55.70;104240.41;4790616;29;20035;-83
2021/12/17 11:37:11;;;;;;;2.80;1.50;;;;;;;18.14;55.84;104230.00;4775449;29;20034;-83
2021/12/17 11:39:43;;;;;;;3.05;1.50;;;;;;;18.15;55.73;104228.25;4806508;29;20035;-83
2021/12/17 11:42:29;;;;;;;2.42;1.85;;;;;;;18.16;55.64;104227.41;4790152;29;20371;-83
2021/12/17 11:47:46;;;;;;;2.22;1.67;;;;;;;18.16;55.53;104235.25;4806601;29;20034;-82
2021/12/17 11:50:16;;;;;;;2.42;1.50;;;;;;;18.16;55.62;104228.34;4806367;29;20035;-83
2021/12/17 11:52:42;;;;;;;1.67;1.33;;;;;;;18.17;55.74;104232.72;4806303;29;20092;-84
2021/12/17 11:55:20;;;;;;;2.03;1.30;;;;;;;18.20;55.69;104237.16;4789990;29;20080;-84
2021/12/17 11:57:47;;;;;;;1.77;1.60;;;;;;;18.18;55.59;104229.28;4806544;29;20035;-83
2021/12/17 12:00:22;;;;;;;1.95;1.35;;;;;;;18.18;55.49;104237.13;4806287;29;20035;-83
2021/12/17 12:02:55;;;;;;;1.63;1.30;;;;;;;18.19;55.64;104238.88;4806449;29;20122;-81
2021/12/17 12:05:40;;;;;;;1.60;1.40;;;;;;;18.19;55.37;104238.88;4787067;29;20057;-82
2021/12/17 12:08:24;;;;;;;1.98;1.20;;;;;;;18.19;55.34;104243.22;4790353;29;20031;-82
2021/12/17 12:11:08;;;;;;;1.90;1.40;;;;;;;18.20;55.42;104238.03;4789923;29;20062;-80
2021/12/17 12:13:36;;;;;;;1.45;1.10;;;;;;;18.20;55.30;104239.75;4806141;29;20506;-77
2021/12/17 12:16:03;;;;;;;3.13;1.27;;;;;;;18.19;55.37;104241.50;4806128;29;20079;-76
2021/12/17 12:18:51;;;;;;;2.08;1.48;;;;;;;18.21;55.21;104247.66;4806304;29;20035;-79
2021/12/17 12:21:19;;;;;;;3.53;1.50;;;;;;;18.20;55.17;104251.06;4792964;29;20080;-77
2021/12/17 12:24:12;;;;;;;1.50;1.38;;;;;;;18.19;55.37;104244.09;4809265;29;20108;-78
2021/12/17 12:27:04;;;;;;;1.43;1.00;;;;;;;18.22;55.48;104246.81;4786259;29;20046;-78
2021/12/17 12:29:30;;;;;;;1.75;1.40;;;;;;;18.22;55.45;104252.03;4790299;29;20444;-82
2021/12/17 12:32:02;;;;;;;2.10;1.40;;;;;;;18.21;55.52;104242.44;4792955;29;20026;-78
2021/12/17 12:34:30;;;;;;;1.65;1.38;;;;;;;18.22;55.23;104249.41;4809219;29;20030;-79
2021/12/17 12:36:59;;;;;;;2.13;1.10;;;;;;;18.23;55.34;104242.53;4809326;29;20035;-78
2021/12/17 12:39:32;;;;;;;2.58;1.27;;;;;;;18.24;55.48;104239.06;4809178;29;20035;-78
2021/12/17 12:42:00;;;;;;;1.77;1.30;;;;;;;18.25;55.36;104228.72;4809087;29;20037;-78
2021/12/17 12:44:47;;;;;;;2.10;1.50;;;;;;;18.25;55.29;104220.00;4792843;29;20284;-79
2021/12/17 12:47:34;;;;;;;1.50;1.13;;;;;;;18.25;55.25;104225.22;4808825;29;20030;-79
2021/12/17 12:50:03;;;;;;;1.70;1.23;;;;;;;18.26;55.40;104222.66;4792408;29;20030;-80
2021/12/17 12:52:32;;;;;;;2.05;1.30;;;;;;;18.26;55.27;104227.88;4792552;29;20056;-81
2021/12/17 12:55:12;;;;;;;1.60;1.23;;;;;;;18.25;55.32;104220.91;4809098;29;20497;-81
2021/12/17 12:57:47;;;;;;;1.60;1.10;;;;;;;18.27;55.08;104227.06;4792426;29;20086;-80
2021/12/17 13:00:32;;;;;;;1.88;1.38;;;;;;;18.27;55.43;104220.97;4808766;29;20048;-83
2021/12/17 13:03:11;;;;;;;1.67;1.10;;;;;;;18.27;55.26;104218.34;4808942;29;20058;-82
2021/12/17 13:05:37;;;;;;;1.38;0.93;;;;;;;18.27;55.15;104220.97;4792513;29;20486;-84
2021/12/17 13:08:08;;;;;;;2.80;1.10;;;;;;;18.28;55.49;104221.00;4793042;29;20039;-83
2021/12/17 13:10:44;;;;;;;2.88;1.05;;;;;;;18.27;55.41;104223.56;4808827;29;20455;-79
2021/12/17 13:13:29;;;;;;;3.17;1.20;;;;;;;18.27;55.50;104226.19;4792298;29;20076;-79
2021/12/17 13:16:07;;;;;;;2.45;1.40;;;;;;;18.26;55.58;104225.25;4808693;29;20031;-77
2021/12/17 13:24:25;;;;;;;1.33;0.90;;;;;;;18.28;55.43;104223.63;4775305;29;20525;-79
2021/12/17 13:26:55;;;;;;;1.25;1.00;;;;;;;18.28;55.31;104223.63;4793112;29;20065;-78
2021/12/17 13:29:35;;;;;;;1.52;1.00;;;;;;;18.29;55.49;104215.00;4808801;29;20101;-79
2021/12/17 13:32:05;;;;;;;1.90;1.13;;;;;;;18.29;55.40;104217.59;4776941;29;20035;-80
2021/12/17 13:34:38;;;;;;;1.50;1.10;;;;;;;18.28;55.46;104207.97;4810177;29;20038;-80
2021/12/17 13:37:20;;;;;;;1.88;1.20;;;;;;;18.29;55.42;104207.16;4811204;29;20034;-79
2021/12/17 13:39:51;;;;;;;0.93;0.73;;;;;;;18.31;55.43;104202.00;4793200;29;20031;-79
2021/12/17 13:42:17;;;;;;;2.05;1.20;;;;;;;18.31;55.47;104204.59;4793319;29;20027;-81
2021/12/17 13:44:49;;;;;;;3.13;1.00;;;;;;;18.30;55.45;104206.31;4793381;29;20042;-81
2021/12/17 13:47:42;;;;;;;1.52;1.10;;;;;;;18.30;55.42;104203.72;4809300;29;20030;-80
2021/12/17 13:50:19;;;;;;;1.50;1.10;;;;;;;18.31;55.49;104204.59;4774990;29;20042;-85
2021/12/17 13:52:55;;;;;;;1.08;0.90;;;;;;;18.32;55.33;104197.69;4791515;29;20043;-82
2021/12/17 13:55:25;;;;;;;1.45;0.88;;;;;;;18.32;55.50;104200.28;4807789;29;20050;-78
2021/12/17 13:57:52;;;;;;;1.15;0.82;;;;;;;18.34;55.62;104204.75;4791637;29;20482;-77
2021/12/17 14:00:21;;;;;;;2.47;1.08;;;;;;;18.33;55.67;104207.28;4776499;29;20050;-78
2021/12/17 14:02:50;;;;;;;3.20;1.20;;;;;;;18.32;55.73;104200.28;4808010;29;20037;-85
2021/12/17 14:05:15;;;;;;;1.48;0.98;;;;;;;18.32;55.59;104206.38;4791973;29;20031;-85
2021/12/17 14:07:41;;;;;;;3.58;0.98;;;;;;;18.33;55.61;104207.28;4791875;29;20037;-86
2021/12/17 14:10:15;;;;;;;1.60;1.00;;;;;;;18.32;55.70;104211.59;4791421;29;20394;-84
2021/12/17 14:12:42;;;;;;;1.88;0.80;;;;;;;18.34;55.61;104214.28;4808087;29;20030;-84
2021/12/17 14:15:15;;;;;;;1.70;1.00;;;;;;;18.33;55.58;104207.28;4791852;29;20042;-86
2021/12/17 14:17:43;;;;;;;1.35;1.00;;;;;;;18.32;55.49;104213.34;4791972;29;20035;-86
2021/12/17 14:20:12;;;;;;;1.90;1.02;;;;;;;18.33;55.45;104215.09;4791664;29;20036;-86
2021/12/17 14:22:41;;;;;;;1.60;1.00;;;;;;;18.32;55.46;104216.81;4791841;29;20039;-87
2021/12/17 14:25:44;;;;;;;1.80;1.00;;;;;;;18.32;55.46;104206.38;4792261;29;20066;-87